Time;durP1;ratioP1;P1;durP2;ratioP2;P2;SDS_P1;SDS_P2;PMS_P1;PMS_P2;Temp;Humidity;BMP_temperature;BMP_pressure;BME280_temperature;BME280_humidity;BME280_pressure;Samples;Min_cycle;Max_cycle;Signal;HPM_P1;HPM_P2
2022/08/05 00:01:13;;;;;;;;;;;25.90;55.60;;;;;;4876910;29;19942;-63
2022/08/05 00:03:40;;;;;;;;;;;25.90;55.50;;;;;;4879617;29;19924;-61
2022/08/05 00:06:10;;;;;;;;;;;26.00;55.60;;;;;;4879677;29;19983;-61
2022/08/05 00:08:37;;;;;;;;;;;25.90;55.50;;;;;;4879554;29;20266;-62
2022/08/05 00:11:04;;;;;;;;;;;25.90;55.60;;;;;;4878965;29;19924;-63
2022/08/05 00:13:33;;;;;;;;;;;25.80;55.80;;;;;;4878529;29;19924;-61
2022/08/05 00:16:00;;;;;;;;;;;25.90;55.60;;;;;;4879084;29;20010;-64
2022/08/05 00:18:27;;;;;;;;;;;25.90;55.10;;;;;;4877894;29;19928;-62
2022/08/05 00:20:54;;;;;;;;;;;25.90;54.90;;;;;;4872365;29;19963;-61
2022/08/05 00:23:22;;;;;;;;;;;25.90;54.90;;;;;;4878943;29;19963;-61
2022/08/05 00:25:48;;;;;;;;;;;25.80;55.20;;;;;;4879546;29;19924;-62
2022/08/05 00:28:15;;;;;;;;;;;25.70;55.60;;;;;;4879180;29;20298;-63
2022/08/05 00:30:43;;;;;;;;;;;25.70;55.80;;;;;;4877996;29;20386;-62
2022/08/05 00:33:10;;;;;;;;;;;25.70;55.90;;;;;;4878548;29;19938;-62
2022/08/05 00:35:37;;;;;;;;;;;25.70;55.90;;;;;;4879140;29;19932;-62
2022/08/05 00:38:04;;;;;;;;;;;25.70;56.10;;;;;;4879062;29;20274;-61
2022/08/05 00:40:32;;;;;;;;;;;25.60;56.20;;;;;;4875358;29;19931;-62
2022/08/05 00:43:00;;;;;;;;;;;25.60;56.50;;;;;;4871837;29;19928;-61
2022/08/05 00:45:27;;;;;;;;;;;25.60;56.70;;;;;;4877232;29;20014;-65
2022/08/05 00:47:55;;;;;;;;;;;25.60;56.70;;;;;;4877507;29;19924;-62
2022/08/05 00:50:22;;;;;;;;;;;25.60;56.60;;;;;;4877056;29;19970;-62
2022/08/05 00:52:49;;;;;;;;;;;25.60;56.70;;;;;;4875892;29;19955;-62
2022/08/05 00:55:16;;;;;;;;;;;25.60;56.70;;;;;;4876204;29;19931;-62
2022/08/05 00:57:43;;;;;;;;;;;25.60;56.80;;;;;;4877951;29;19923;-61
2022/08/05 01:00:10;;;;;;;;;;;25.60;56.70;;;;;;4873993;29;20019;-62
2022/08/05 01:02:37;;;;;;;;;;;25.60;56.60;;;;;;4870870;29;19927;-62
2022/08/05 01:05:06;;;;;;;;;;;25.60;56.70;;;;;;4877132;29;20422;-62
2022/08/05 01:07:33;;;;;;;;;;;25.60;57.00;;;;;;4873226;29;19935;-62
2022/08/05 01:10:00;;;;;;;;;;;25.60;57.60;;;;;;4876324;29;19923;-63
2022/08/05 01:12:27;;;;;;;;;;;25.60;58.10;;;;;;4877538;29;19982;-63
2022/08/05 01:14:57;;;;;;;;;;;25.70;58.20;;;;;;4875755;29;19967;-64
2022/08/05 01:17:26;;;;;;;;;;;25.80;58.70;;;;;;4877264;29;19924;-62
2022/08/05 01:19:55;;;;;;;;;;;25.80;58.80;;;;;;4870750;29;19932;-62
2022/08/05 01:22:32;;;;;;;;;;;25.80;58.50;;;;;;4878399;29;20349;-63
2022/08/05 01:25:06;;;;;;;;;;;25.90;58.80;;;;;;4877911;29;20023;-61
2022/08/05 01:27:51;;;;;;;;;;;25.90;58.90;;;;;;4872620;29;20007;-64
2022/08/05 01:30:18;;;;;;;;;;;25.90;59.00;;;;;;4878013;29;19927;-63
2022/08/05 01:32:46;;;;;;;;;;;25.90;59.00;;;;;;4875961;29;20302;-62
2022/08/05 01:35:14;;;;;;;;;;;25.90;59.10;;;;;;4875622;29;20359;-62
2022/08/05 01:37:43;;;;;;;;;;;25.90;59.20;;;;;;4869849;29;19928;-64
2022/08/05 01:40:11;;;;;;;;;;;25.90;59.50;;;;;;4878806;29;19927;-62
2022/08/05 01:42:39;;;;;;;;;;;25.90;59.60;;;;;;4872838;29;19943;-61
2022/08/05 01:45:08;;;;;;;;;;;25.90;59.70;;;;;;4877107;29;19932;-61
2022/08/05 01:47:36;;;;;;;;;;;25.90;59.60;;;;;;4877228;29;19923;-61
2022/08/05 01:50:04;;;;;;;;;;;25.90;59.90;;;;;;4875478;29;19930;-64
2022/08/05 01:52:31;;;;;;;;;;;25.90;60.10;;;;;;4874283;29;19928;-61
2022/08/05 01:54:59;;;;;;;;;;;25.80;60.00;;;;;;4877663;29;20225;-61
2022/08/05 01:57:28;;;;;;;;;;;25.80;60.60;;;;;;4878455;29;19923;-62
2022/08/05 01:59:57;;;;;;;;;;;25.80;60.50;;;;;;4875682;29;19935;-62
2022/08/05 02:02:26;;;;;;;;;;;25.80;60.80;;;;;;4875789;29;19924;-61
2022/08/05 02:04:54;;;;;;;;;;;25.80;60.80;;;;;;4871560;29;19924;-62
2022/08/05 02:07:21;;;;;;;;;;;25.90;60.40;;;;;;4872549;29;19924;-63
2022/08/05 02:09:48;;;;;;;;;;;25.90;60.20;;;;;;4874109;29;19924;-63
2022/08/05 02:12:18;;;;;;;;;;;25.90;60.30;;;;;;4877224;29;20042;-62
2022/08/05 02:14:49;;;;;;;;;;;25.80;60.70;;;;;;4876913;29;19931;-64
2022/08/05 02:17:17;;;;;;;;;;;25.80;61.00;;;;;;4873526;29;19994;-62
2022/08/05 02:19:48;;;;;;;;;;;25.80;61.20;;;;;;4880431;29;20327;-62
2022/08/05 02:22:16;;;;;;;;;;;25.70;61.30;;;;;;4876522;29;19924;-64
2022/08/05 02:24:47;;;;;;;;;;;25.70;61.30;;;;;;4877842;29;19976;-62
2022/08/05 02:27:14;;;;;;;;;;;25.60;61.30;;;;;;4875862;29;20067;-63
2022/08/05 02:29:43;;;;;;;;;;;25.70;61.20;;;;;;4872157;29;19924;-63
2022/08/05 02:32:11;;;;;;;;;;;25.70;60.90;;;;;;4876686;29;19927;-62
2022/08/05 02:34:38;;;;;;;;;;;25.70;60.90;;;;;;4875195;29;19924;-62
2022/08/05 02:37:08;;;;;;;;;;;25.70;60.80;;;;;;4876220;29;19928;-64
2022/08/05 02:39:36;;;;;;;;;;;25.60;61.00;;;;;;4870625;29;19928;-65
2022/08/05 02:42:03;;;;;;;;;;;25.60;61.30;;;;;;4880728;29;20255;-62
2022/08/05 02:44:31;;;;;;;;;;;25.60;61.10;;;;;;4879731;29;19935;-62
2022/08/05 02:46:58;;;;;;;;;;;25.60;61.10;;;;;;4877332;29;19923;-63
2022/08/05 02:49:26;;;;;;;;;;;25.60;61.20;;;;;;4880612;29;19924;-63
2022/08/05 02:51:53;;;;;;;;;;;25.60;61.30;;;;;;4880328;29;19928;-62
2022/08/05 02:54:22;;;;;;;;;;;25.60;61.20;;;;;;4880142;29;19928;-65
2022/08/05 02:56:49;;;;;;;;;;;25.60;61.00;;;;;;4877001;29;19923;-62
2022/08/05 02:59:16;;;;;;;;;;;25.60;60.90;;;;;;4879046;29;19945;-62
2022/08/05 03:01:44;;;;;;;;;;;25.60;60.90;;;;;;4872669;29;19927;-64
2022/08/05 03:04:12;;;;;;;;;;;25.60;60.60;;;;;;4881439;29;19932;-62
2022/08/05 03:06:40;;;;;;;;;;;25.60;60.70;;;;;;4878654;29;20018;-63
2022/08/05 03:09:07;;;;;;;;;;;25.60;60.70;;;;;;4876083;29;19933;-65
2022/08/05 03:11:36;;;;;;;;;;;25.60;60.70;;;;;;4880743;29;19959;-63
2022/08/05 03:14:02;;;;;;;;;;;25.60;60.80;;;;;;4880965;29;20290;-63
2022/08/05 03:16:29;;;;;;;;;;;25.60;61.00;;;;;;4874304;29;20374;-62
2022/08/05 03:18:56;;;;;;;;;;;25.60;61.30;;;;;;4872765;29;19931;-63
2022/08/05 03:21:23;;;;;;;;;;;25.60;61.50;;;;;;4880796;29;19924;-62
2022/08/05 03:23:50;;;;;;;;;;;25.60;61.50;;;;;;4872188;29;20010;-62
2022/08/05 03:26:17;;;;;;;;;;;25.60;61.50;;;;;;4875062;29;19923;-62
2022/08/05 03:28:45;;;;;;;;;;;25.60;61.70;;;;;;4878537;29;20014;-63
2022/08/05 03:31:13;;;;;;;;;;;25.60;61.60;;;;;;4877902;29;20301;-62
2022/08/05 03:33:40;;;;;;;;;;;25.60;61.50;;;;;;4879694;29;19924;-61
2022/08/05 03:36:09;;;;;;;;;;;25.50;61.90;;;;;;4874414;29;19924;-64
2022/08/05 03:38:39;;;;;;;;;;;25.60;62.20;;;;;;4881180;29;19924;-63
2022/08/05 03:41:06;;;;;;;;;;;25.60;62.20;;;;;;4880919;29;20390;-64
2022/08/05 03:43:33;;;;;;;;;;;25.60;62.30;;;;;;4877899;29;19924;-62
2022/08/05 03:46:01;;;;;;;;;;;25.50;63.30;;;;;;4877691;29;20032;-63
2022/08/05 03:48:28;;;;;;;;;;;25.40;63.50;;;;;;4877736;29;19935;-63
2022/08/05 03:50:58;;;;;;;;;;;25.40;64.50;;;;;;4879930;29;19923;-64
2022/08/05 03:53:28;;;;;;;;;;;25.30;65.60;;;;;;4877374;29;19924;-61
2022/08/05 03:55:58;;;;;;;;;;;25.20;66.50;;;;;;4877151;29;19924;-62
2022/08/05 03:58:27;;;;;;;;;;;25.20;66.60;;;;;;4879527;29;20425;-62
2022/08/05 04:00:55;;;;;;;;;;;25.20;67.60;;;;;;4875361;29;19927;-62
2022/08/05 04:03:24;;;;;;;;;;;25.10;68.60;;;;;;4880244;29;20414;-64
2022/08/05 04:05:51;;;;;;;;;;;25.10;69.40;;;;;;4875012;29;19949;-62
2022/08/05 04:08:18;;;;;;;;;;;25.10;69.30;;;;;;4873701;29;19978;-63
2022/08/05 04:10:45;;;;;;;;;;;25.00;70.00;;;;;;4878247;29;19924;-62
2022/08/05 04:13:12;;;;;;;;;;;25.00;70.10;;;;;;4878812;29;19928;-63
2022/08/05 04:15:39;;;;;;;;;;;25.00;70.40;;;;;;4869601;29;19924;-63
2022/08/05 04:18:06;;;;;;;;;;;25.00;69.90;;;;;;4873933;29;19930;-62
2022/08/05 04:20:34;;;;;;;;;;;25.00;69.80;;;;;;4870929;29;19924;-64
2022/08/05 04:23:01;;;;;;;;;;;24.90;70.00;;;;;;4876611;29;20083;-64
2022/08/05 04:25:28;;;;;;;;;;;24.90;70.10;;;;;;4877483;29;19962;-63
2022/08/05 04:27:54;;;;;;;;;;;24.90;70.20;;;;;;4871054;29;20010;-64
2022/08/05 04:30:21;;;;;;;;;;;24.80;70.40;;;;;;4873961;29;19928;-64
2022/08/05 04:32:48;;;;;;;;;;;24.80;70.70;;;;;;4872011;29;19930;-62
2022/08/05 04:35:15;;;;;;;;;;;24.80;70.40;;;;;;4875696;29;20362;-62
2022/08/05 04:37:43;;;;;;;;;;;24.70;70.10;;;;;;4874055;29;20011;-63
2022/08/05 04:40:10;;;;;;;;;;;24.70;70.50;;;;;;4878017;29;19930;-61
2022/08/05 04:42:37;;;;;;;;;;;24.60;70.70;;;;;;4866796;29;19924;-62
2022/08/05 04:45:04;;;;;;;;;;;24.60;71.00;;;;;;4877239;29;19923;-62
2022/08/05 04:47:31;;;;;;;;;;;24.50;71.10;;;;;;4878116;29;20393;-63
2022/08/05 04:49:58;;;;;;;;;;;24.60;70.90;;;;;;4874903;29;19924;-63
2022/08/05 04:52:24;;;;;;;;;;;24.50;71.10;;;;;;4879713;29;19924;-62
2022/08/05 04:54:52;;;;;;;;;;;24.50;70.90;;;;;;4878628;29;19963;-64
2022/08/05 04:57:19;;;;;;;;;;;24.40;71.00;;;;;;4879150;29;19923;-62
2022/08/05 04:59:46;;;;;;;;;;;24.40;70.90;;;;;;4873388;29;19924;-63
2022/08/05 05:02:12;;;;;;;;;;;24.40;71.20;;;;;;4875502;29;19968;-63
2022/08/05 05:04:39;;;;;;;;;;;24.30;71.40;;;;;;4878498;29;19924;-63
2022/08/05 05:07:06;;;;;;;;;;;24.30;71.40;;;;;;4876530;29;19923;-63
2022/08/05 05:09:32;;;;;;;;;;;24.30;71.40;;;;;;4879620;29;19923;-63
2022/08/05 05:12:01;;;;;;;;;;;24.30;71.50;;;;;;4878615;29;19924;-63
2022/08/05 05:14:29;;;;;;;;;;;24.30;71.50;;;;;;4877452;29;19923;-62
2022/08/05 05:16:56;;;;;;;;;;;24.30;72.10;;;;;;4875257;29;19923;-63
2022/08/05 05:19:23;;;;;;;;;;;24.20;72.50;;;;;;4872521;29;20429;-66
2022/08/05 05:21:49;;;;;;;;;;;24.20;72.90;;;;;;4865264;29;19928;-63
2022/08/05 05:24:16;;;;;;;;;;;24.10;73.20;;;;;;4876652;29;19931;-62
2022/08/05 05:26:43;;;;;;;;;;;24.10;73.40;;;;;;4870289;29;20014;-63
2022/08/05 05:29:11;;;;;;;;;;;24.10;73.30;;;;;;4874985;29;20045;-64
2022/08/05 05:31:38;;;;;;;;;;;24.10;73.70;;;;;;4875145;29;19923;-63
2022/08/05 05:34:04;;;;;;;;;;;24.00;73.70;;;;;;4875494;29;19928;-62
2022/08/05 05:36:31;;;;;;;;;;;24.00;73.90;;;;;;4874966;29;19979;-64
2022/08/05 05:38:58;;;;;;;;;;;24.00;74.10;;;;;;4874114;29;19927;-64
2022/08/05 05:41:24;;;;;;;;;;;24.00;74.20;;;;;;4878486;29;19931;-64
2022/08/05 05:43:51;;;;;;;;;;;23.90;74.40;;;;;;4876885;29;19932;-65
2022/08/05 05:46:19;;;;;;;;;;;24.00;74.80;;;;;;4872613;29;19924;-63
2022/08/05 05:48:46;;;;;;;;;;;24.00;75.00;;;;;;4875309;29;20022;-65
2022/08/05 05:51:17;;;;;;;;;;;24.00;75.20;;;;;;4875560;29;19928;-64
2022/08/05 05:53:44;;;;;;;;;;;23.90;75.50;;;;;;4875964;29;19924;-66
2022/08/05 05:56:11;;;;;;;;;;;23.90;75.50;;;;;;4877715;29;19930;-64
2022/08/05 05:58:38;;;;;;;;;;;24.00;75.40;;;;;;4872170;29;20358;-63
2022/08/05 06:01:04;;;;;;;;;;;24.00;75.40;;;;;;4870876;29;19927;-63
2022/08/05 06:03:32;;;;;;;;;;;24.00;75.30;;;;;;4870826;29;19931;-62
2022/08/05 06:05:59;;;;;;;;;;;24.00;75.10;;;;;;4877272;29;19931;-62
2022/08/05 06:08:26;;;;;;;;;;;24.20;74.10;;;;;;4868110;29;19930;-64
2022/08/05 06:10:52;;;;;;;;;;;24.30;73.30;;;;;;4873712;29;19924;-63
2022/08/05 06:13:19;;;;;;;;;;;24.50;73.40;;;;;;4875184;29;20467;-63
2022/08/05 06:15:46;;;;;;;;;;;24.50;73.40;;;;;;4875470;29;19939;-62
2022/08/05 06:18:13;;;;;;;;;;;24.60;72.70;;;;;;4876356;29;19934;-62
2022/08/05 06:20:41;;;;;;;;;;;24.70;73.10;;;;;;4877693;29;19943;-63
2022/08/05 06:23:07;;;;;;;;;;;24.80;72.70;;;;;;4873567;29;19947;-62
2022/08/05 06:25:34;;;;;;;;;;;24.80;72.40;;;;;;4877282;29;19923;-64
2022/08/05 06:28:02;;;;;;;;;;;24.80;72.90;;;;;;4875086;29;19927;-62
2022/08/05 06:30:29;;;;;;;;;;;24.80;73.00;;;;;;4877179;29;19930;-62
2022/08/05 06:32:55;;;;;;;;;;;24.80;72.70;;;;;;4877186;29;19931;-64
2022/08/05 06:35:22;;;;;;;;;;;24.80;73.10;;;;;;4877411;29;19971;-63
2022/08/05 06:37:50;;;;;;;;;;;24.90;73.20;;;;;;4880145;29;20339;-62
2022/08/05 06:40:17;;;;;;;;;;;25.00;73.00;;;;;;4880158;29;19930;-60
2022/08/05 06:42:43;;;;;;;;;;;25.10;72.10;;;;;;4878818;29;20386;-63
2022/08/05 06:45:10;;;;;;;;;;;25.20;71.50;;;;;;4868200;29;19939;-62
2022/08/05 06:47:37;;;;;;;;;;;25.30;71.60;;;;;;4878233;29;19924;-63
2022/08/05 06:50:04;;;;;;;;;;;25.40;70.90;;;;;;4875376;29;19936;-61
2022/08/05 06:52:31;;;;;;;;;;;25.60;70.60;;;;;;4877382;29;19931;-61
2022/08/05 06:54:59;;;;;;;;;;;25.60;70.40;;;;;;4877096;29;19928;-62
2022/08/05 06:57:26;;;;;;;;;;;25.60;70.30;;;;;;4876462;29;20384;-62
2022/08/05 06:59:52;;;;;;;;;;;25.70;70.50;;;;;;4879665;29;19931;-62
2022/08/05 07:02:19;;;;;;;;;;;25.70;70.20;;;;;;4873804;29;19928;-61
2022/08/05 07:04:46;;;;;;;;;;;25.90;70.40;;;;;;4875429;29;20365;-63
2022/08/05 07:07:13;;;;;;;;;;;26.00;70.30;;;;;;4879523;29;19931;-63
2022/08/05 07:09:40;;;;;;;;;;;26.10;69.90;;;;;;4877481;29;19971;-61
2022/08/05 07:16:47;;;;;;;;;;;26.20;70.10;;;;;;4878234;29;20388;-61
2022/08/05 07:17:40;;;;;;;;;;;26.20;69.60;;;;;;4877800;29;20382;-61
2022/08/05 07:20:07;;;;;;;;;;;26.20;69.30;;;;;;4875114;29;19953;-61
2022/08/05 07:22:34;;;;;;;;;;;26.20;69.40;;;;;;4875120;29;19932;-65
2022/08/05 07:25:02;;;;;;;;;;;26.20;69.30;;;;;;4875671;29;20076;-61
2022/08/05 07:27:31;;;;;;;;;;;26.30;68.80;;;;;;4876834;29;19928;-64
2022/08/05 07:29:58;;;;;;;;;;;26.40;68.70;;;;;;4877044;29;19957;-62
2022/08/05 07:32:25;;;;;;;;;;;26.50;68.80;;;;;;4876068;29;20484;-64
2022/08/05 07:34:52;;;;;;;;;;;26.60;68.40;;;;;;4877520;29;19923;-64
2022/08/05 07:37:19;;;;;;;;;;;26.70;67.90;;;;;;4876489;29;19942;-61
2022/08/05 07:39:46;;;;;;;;;;;26.80;67.70;;;;;;4867927;29;19931;-63
2022/08/05 07:42:13;;;;;;;;;;;26.80;67.80;;;;;;4875074;29;19927;-63
2022/08/05 07:44:41;;;;;;;;;;;26.80;67.90;;;;;;4876900;29;19924;-61
2022/08/05 07:47:08;;;;;;;;;;;26.70;68.10;;;;;;4871813;29;20375;-62
2022/08/05 07:49:35;;;;;;;;;;;26.60;68.10;;;;;;4877415;29;20289;-62
2022/08/05 07:52:02;;;;;;;;;;;26.60;67.60;;;;;;4870761;29;20382;-61
2022/08/05 07:54:29;;;;;;;;;;;26.50;67.80;;;;;;4873549;29;20430;-62
2022/08/05 07:56:56;;;;;;;;;;;26.40;67.80;;;;;;4868513;29;19924;-64
2022/08/05 07:59:23;;;;;;;;;;;26.40;68.20;;;;;;4873698;29;19928;-64
2022/08/05 08:01:51;;;;;;;;;;;26.30;68.90;;;;;;4872259;29;19976;-70
2022/08/05 08:04:18;;;;;;;;;;;26.10;69.00;;;;;;4872594;29;19979;-70
2022/08/05 08:06:45;;;;;;;;;;;26.10;70.20;;;;;;4878950;29;19959;-70
2022/08/05 08:09:12;;;;;;;;;;;26.00;70.20;;;;;;4877739;29;20406;-71
2022/08/05 08:11:39;;;;;;;;;;;26.00;69.80;;;;;;4876926;29;21147;-70
2022/08/05 08:14:06;;;;;;;;;;;25.90;69.90;;;;;;4873846;29;19971;-69
2022/08/05 08:16:32;;;;;;;;;;;25.90;70.20;;;;;;4878044;29;20302;-70
2022/08/05 08:19:01;;;;;;;;;;;25.80;70.50;;;;;;4878267;29;20002;-71
2022/08/05 08:21:28;;;;;;;;;;;25.70;70.60;;;;;;4879099;29;19931;-70
2022/08/05 08:23:55;;;;;;;;;;;25.70;70.80;;;;;;4879764;29;20014;-71
2022/08/05 08:26:22;;;;;;;;;;;25.70;70.90;;;;;;4879954;29;19946;-70
2022/08/05 08:28:48;;;;;;;;;;;25.70;71.20;;;;;;4873792;29;19970;-69
2022/08/05 08:31:16;;;;;;;;;;;25.60;71.50;;;;;;4883317;29;20010;-70
2022/08/05 08:33:43;;;;;;;;;;;25.70;71.30;;;;;;4879321;29;19938;-70
2022/08/05 08:36:11;;;;;;;;;;;25.70;71.60;;;;;;4880120;29;19938;-70
2022/08/05 08:38:38;;;;;;;;;;;25.70;72.00;;;;;;4876190;29;19924;-72
2022/08/05 08:41:07;;;;;;;;;;;25.60;71.70;;;;;;4879291;29;19927;-70
2022/08/05 08:43:34;;;;;;;;;;;25.60;71.50;;;;;;4869899;29;19931;-72
2022/08/05 08:46:03;;;;;;;;;;;25.50;71.50;;;;;;4876339;29;20044;-70
2022/08/05 08:48:30;;;;;;;;;;;25.50;71.60;;;;;;4879316;29;19931;-71
2022/08/05 08:50:57;;;;;;;;;;;25.60;71.80;;;;;;4875055;29;19924;-70
2022/08/05 08:53:27;;;;;;;;;;;25.50;71.70;;;;;;4876421;29;19935;-72
2022/08/05 08:55:54;;;;;;;;;;;25.50;71.80;;;;;;4871253;29;20374;-71
2022/08/05 08:58:21;;;;;;;;;;;25.60;71.70;;;;;;4873428;29;20026;-70
2022/08/05 09:00:47;;;;;;;;;;;25.60;71.30;;;;;;4876022;29;19924;-71
2022/08/05 09:03:14;;;;;;;;;;;25.60;71.60;;;;;;4877740;29;19980;-69
2022/08/05 09:05:41;;;;;;;;;;;25.60;71.50;;;;;;4868036;29;19970;-70
2022/08/05 09:08:08;;;;;;;;;;;25.60;72.00;;;;;;4876953;29;19931;-71
2022/08/05 09:10:36;;;;;;;;;;;25.60;72.00;;;;;;4870082;29;19930;-71
2022/08/05 09:13:03;;;;;;;;;;;25.60;72.00;;;;;;4870246;29;19924;-70
2022/08/05 09:15:30;;;;;;;;;;;25.60;72.10;;;;;;4875335;29;20313;-72
2022/08/05 09:17:57;;;;;;;;;;;25.60;71.90;;;;;;4872975;29;19951;-71
2022/08/05 09:20:24;;;;;;;;;;;25.60;71.50;;;;;;4872817;29;20014;-71
2022/08/05 09:23:04;;;;;;;;;;;25.60;71.20;;;;;;4874814;29;20488;-69
2022/08/05 09:25:31;;;;;;;;;;;25.80;70.90;;;;;;4869104;29;19955;-71
2022/08/05 09:28:05;;;;;;;;;;;25.80;71.20;;;;;;4872552;29;19938;-70
2022/08/05 09:30:33;;;;;;;;;;;25.90;70.80;;;;;;4867996;29;19927;-70
2022/08/05 09:33:01;;;;;;;;;;;25.90;71.00;;;;;;4870345;29;20010;-70
2022/08/05 09:35:28;;;;;;;;;;;25.90;71.20;;;;;;4874277;29;20014;-70
2022/08/05 09:37:55;;;;;;;;;;;25.90;70.70;;;;;;4878051;29;19924;-70
2022/08/05 09:40:29;;;;;;;;;;;26.00;70.10;;;;;;4876040;29;20363;-71
2022/08/05 09:42:56;;;;;;;;;;;26.10;69.90;;;;;;4877599;29;20026;-72
2022/08/05 09:45:33;;;;;;;;;;;26.10;69.80;;;;;;4874508;29;19923;-70
2022/08/05 09:48:00;;;;;;;;;;;26.10;69.70;;;;;;4881030;29;19946;-71
2022/08/05 09:50:34;;;;;;;;;;;26.20;69.40;;;;;;4875723;29;19931;-69
2022/08/05 09:53:01;;;;;;;;;;;26.20;68.80;;;;;;4872405;29;19968;-70
2022/08/05 09:55:27;;;;;;;;;;;26.20;69.00;;;;;;4869618;29;19924;-71
2022/08/05 09:57:54;;;;;;;;;;;26.20;68.70;;;;;;4876620;29;19923;-69
2022/08/05 10:00:23;;;;;;;;;;;26.20;68.80;;;;;;4875188;29;19924;-70
2022/08/05 10:02:53;;;;;;;;;;;26.40;68.40;;;;;;4873433;29;20331;-69
2022/08/05 10:05:21;;;;;;;;;;;26.40;68.00;;;;;;4878290;29;19967;-71
2022/08/05 10:07:49;;;;;;;;;;;26.50;67.30;;;;;;4877358;29;20385;-70
2022/08/05 10:10:17;;;;;;;;;;;26.60;67.00;;;;;;4878293;29;19928;-71
2022/08/05 10:12:44;;;;;;;;;;;26.60;67.00;;;;;;4876911;29;19924;-70
2022/08/05 10:15:15;;;;;;;;;;;26.60;66.50;;;;;;4873747;29;19928;-70
2022/08/05 10:17:41;;;;;;;;;;;26.70;66.10;;;;;;4874508;29;20370;-69
2022/08/05 10:20:11;;;;;;;;;;;26.60;65.80;;;;;;4878396;29;19924;-71
2022/08/05 10:22:39;;;;;;;;;;;26.60;65.90;;;;;;4874487;29;19924;-70
2022/08/05 10:25:06;;;;;;;;;;;26.70;65.40;;;;;;4877994;29;19928;-71
2022/08/05 10:27:33;;;;;;;;;;;26.70;65.00;;;;;;4877057;29;19924;-70
2022/08/05 10:30:00;;;;;;;;;;;26.80;65.20;;;;;;4873961;29;19928;-70
2022/08/05 10:32:30;;;;;;;;;;;26.80;65.00;;;;;;4875785;29;19971;-71
2022/08/05 10:34:58;;;;;;;;;;;27.00;64.80;;;;;;4878831;29;19950;-71
2022/08/05 10:37:29;;;;;;;;;;;26.90;64.00;;;;;;4878414;29;20381;-70
2022/08/05 10:39:58;;;;;;;;;;;27.00;64.10;;;;;;4873700;29;19924;-70
2022/08/05 10:42:26;;;;;;;;;;;26.90;64.60;;;;;;4878557;29;19924;-69
2022/08/05 10:44:54;;;;;;;;;;;26.90;64.10;;;;;;4871182;29;19932;-70
2022/08/05 10:47:21;;;;;;;;;;;26.80;64.30;;;;;;4875991;29;19931;-71
2022/08/05 10:50:01;;;;;;;;;;;26.80;64.30;;;;;;4875140;29;19930;-70
2022/08/05 10:52:40;;;;;;;;;;;26.80;64.10;;;;;;4877400;29;19955;-70
2022/08/05 10:55:08;;;;;;;;;;;26.80;64.10;;;;;;4874418;29;20498;-68
2022/08/05 10:57:36;;;;;;;;;;;26.80;64.10;;;;;;4873390;29;19924;-70
2022/08/05 11:00:07;;;;;;;;;;;26.80;64.10;;;;;;4869687;29;19996;-70
2022/08/05 11:02:34;;;;;;;;;;;26.80;64.10;;;;;;4876995;29;20285;-70
2022/08/05 11:05:02;;;;;;;;;;;26.80;63.80;;;;;;4880642;29;19923;-70
2022/08/05 11:07:30;;;;;;;;;;;26.80;63.70;;;;;;4877967;29;19991;-70
2022/08/05 11:10:00;;;;;;;;;;;26.80;63.80;;;;;;4880877;29;19931;-70
2022/08/05 11:12:45;;;;;;;;;;;26.90;63.50;;;;;;4880129;29;20010;-70
2022/08/05 11:15:20;;;;;;;;;;;27.00;63.40;;;;;;4878125;29;19923;-69
2022/08/05 11:17:47;;;;;;;;;;;27.20;63.00;;;;;;4875095;29;20333;-69
2022/08/05 11:20:36;;;;;;;;;;;27.40;62.80;;;;;;4880637;29;19924;-69
2022/08/05 11:23:17;;;;;;;;;;;27.50;62.60;;;;;;4871333;29;20596;-71
2022/08/05 11:25:59;;;;;;;;;;;27.60;62.50;;;;;;4870863;29;19924;-69
2022/08/05 11:28:43;;;;;;;;;;;27.60;62.30;;;;;;4874452;29;19946;-71
2022/08/05 11:31:19;;;;;;;;;;;27.60;62.00;;;;;;4879923;29;19930;-69
2022/08/05 11:33:53;;;;;;;;;;;27.70;62.00;;;;;;4880198;29;20382;-69
2022/08/05 11:36:20;;;;;;;;;;;27.80;61.70;;;;;;4881130;29;19927;-72
2022/08/05 11:38:53;;;;;;;;;;;27.80;61.50;;;;;;4879109;29;19928;-71
2022/08/05 11:41:22;;;;;;;;;;;27.90;61.60;;;;;;4872213;29;20431;-70
2022/08/05 11:43:53;;;;;;;;;;;27.80;61.50;;;;;;4877891;29;20439;-70
2022/08/05 11:46:25;;;;;;;;;;;27.80;61.40;;;;;;4881807;29;19927;-69
2022/08/05 11:48:52;;;;;;;;;;;27.80;61.40;;;;;;4880144;29;19934;-71
2022/08/05 11:51:18;;;;;;;;;;;27.70;61.80;;;;;;4880229;29;19927;-71
2022/08/05 11:53:45;;;;;;;;;;;27.70;61.70;;;;;;4880347;29;19954;-70
2022/08/05 11:56:13;;;;;;;;;;;27.70;61.50;;;;;;4879309;29;19924;-69
2022/08/05 11:58:41;;;;;;;;;;;27.70;61.50;;;;;;4880983;29;19924;-70
2022/08/05 12:01:09;;;;;;;;;;;27.70;61.40;;;;;;4876176;29;19924;-70
2022/08/05 12:03:43;;;;;;;;;;;27.70;61.50;;;;;;4879074;29;19924;-70
2022/08/05 12:06:10;;;;;;;;;;;27.80;61.50;;;;;;4880685;29;19930;-69
2022/08/05 12:08:41;;;;;;;;;;;27.80;61.50;;;;;;4875121;29;19960;-69
2022/08/05 12:11:08;;;;;;;;;;;27.90;61.20;;;;;;4875815;29;20259;-70
2022/08/05 12:13:35;;;;;;;;;;;27.90;61.00;;;;;;4878890;29;19923;-71
2022/08/05 12:16:03;;;;;;;;;;;27.90;60.90;;;;;;4881015;29;20009;-70
2022/08/05 12:18:33;;;;;;;;;;;27.90;60.90;;;;;;4878396;29;19928;-70
2022/08/05 12:21:08;;;;;;;;;;;28.00;60.80;;;;;;4873509;29;19923;-70
2022/08/05 12:23:35;;;;;;;;;;;27.90;60.60;;;;;;4875125;29;19931;-70
2022/08/05 12:26:02;;;;;;;;;;;27.80;60.90;;;;;;4876729;29;19931;-72
2022/08/05 12:28:33;;;;;;;;;;;27.80;60.80;;;;;;4878250;29;20378;-70
2022/08/05 12:31:00;;;;;;;;;;;27.80;60.70;;;;;;4878981;29;19923;-70
2022/08/05 12:33:28;;;;;;;;;;;27.90;60.50;;;;;;4873873;29;19966;-69
2022/08/05 12:35:55;;;;;;;;;;;28.00;60.40;;;;;;4872921;29;20389;-69
2022/08/05 12:38:22;;;;;;;;;;;28.10;60.40;;;;;;4876842;29;20264;-71
2022/08/05 12:40:49;;;;;;;;;;;28.10;60.60;;;;;;4872329;29;19923;-71
2022/08/05 12:43:16;;;;;;;;;;;28.20;60.50;;;;;;4875068;29;19932;-68
2022/08/05 12:45:53;;;;;;;;;;;28.20;60.20;;;;;;4872339;29;19930;-70
2022/08/05 12:48:20;;;;;;;;;;;28.20;60.30;;;;;;4877924;29;20021;-68
2022/08/05 12:51:01;;;;;;;;;;;28.40;60.10;;;;;;4874690;29;19924;-70
2022/08/05 12:53:30;;;;;;;;;;;28.40;59.80;;;;;;4876657;29;20023;-70
2022/08/05 12:55:56;;;;;;;;;;;28.40;59.60;;;;;;4869978;29;19924;-69
2022/08/05 12:58:23;;;;;;;;;;;28.50;59.50;;;;;;4872441;29;20015;-70
2022/08/05 13:00:51;;;;;;;;;;;28.40;59.50;;;;;;4873026;29;19931;-70
2022/08/05 13:03:17;;;;;;;;;;;28.40;59.40;;;;;;4878462;29;19972;-70
2022/08/05 13:05:46;;;;;;;;;;;28.40;59.50;;;;;;4876535;29;19924;-69
2022/08/05 13:08:16;;;;;;;;;;;28.40;59.30;;;;;;4865619;29;19927;-72
2022/08/05 13:10:44;;;;;;;;;;;28.40;59.20;;;;;;4876510;29;20390;-70
2022/08/05 13:13:11;;;;;;;;;;;28.50;59.00;;;;;;4875879;29;19924;-69
2022/08/05 13:15:40;;;;;;;;;;;28.50;58.70;;;;;;4872836;29;19941;-69
2022/08/05 13:18:06;;;;;;;;;;;28.50;58.60;;;;;;4877842;29;19928;-70
2022/08/05 13:20:33;;;;;;;;;;;28.60;58.30;;;;;;4877672;29;19924;-71
2022/08/05 13:23:01;;;;;;;;;;;28.60;58.00;;;;;;4875810;29;20341;-70
2022/08/05 13:25:28;;;;;;;;;;;28.70;56.70;;;;;;4878026;29;19928;-71
2022/08/05 13:27:56;;;;;;;;;;;28.70;56.50;;;;;;4877659;29;20015;-71
2022/08/05 13:30:24;;;;;;;;;;;28.80;56.40;;;;;;4878089;29;19979;-70
2022/08/05 13:32:51;;;;;;;;;;;28.80;55.80;;;;;;4872512;29;20080;-69
2022/08/05 13:35:19;;;;;;;;;;;28.70;56.30;;;;;;4878052;29;19938;-69
2022/08/05 13:37:46;;;;;;;;;;;28.70;56.10;;;;;;4879587;29;19971;-69
2022/08/05 13:40:12;;;;;;;;;;;28.60;56.40;;;;;;4877394;29;19924;-68
2022/08/05 13:42:39;;;;;;;;;;;28.60;56.50;;;;;;4874235;29;20347;-70
2022/08/05 13:45:08;;;;;;;;;;;28.70;56.10;;;;;;4873927;29;19945;-70
2022/08/05 13:47:36;;;;;;;;;;;28.70;56.30;;;;;;4879178;29;19930;-70
2022/08/05 13:50:04;;;;;;;;;;;28.70;56.10;;;;;;4876902;29;19924;-70
2022/08/05 13:52:30;;;;;;;;;;;28.80;56.10;;;;;;4875862;29;19923;-71
2022/08/05 13:54:57;;;;;;;;;;;28.80;56.10;;;;;;4883827;29;19923;-70
2022/08/05 13:57:24;;;;;;;;;;;28.70;55.50;;;;;;4875297;29;19924;-71
2022/08/05 13:59:51;;;;;;;;;;;28.70;55.60;;;;;;4874305;29;20275;-71
2022/08/05 14:02:19;;;;;;;;;;;28.70;55.80;;;;;;4875205;29;19930;-71
2022/08/05 14:07:34;;;;;;;;;;;28.60;55.70;;;;;;4865019;29;19928;-71
2022/08/05 14:10:01;;;;;;;;;;;28.50;55.90;;;;;;4872200;29;19931;-70
2022/08/05 14:12:28;;;;;;;;;;;28.50;55.60;;;;;;4875439;29;19924;-70
2022/08/05 14:14:55;;;;;;;;;;;28.50;54.70;;;;;;4875502;29;19923;-71
2022/08/05 14:17:25;;;;;;;;;;;28.40;55.00;;;;;;4876078;29;20290;-70
2022/08/05 14:19:52;;;;;;;;;;;28.30;54.80;;;;;;4874880;29;19934;-71
2022/08/05 14:22:20;;;;;;;;;;;28.30;55.20;;;;;;4871730;29;19990;-69
2022/08/05 14:24:47;;;;;;;;;;;28.20;55.20;;;;;;4869809;29;19956;-70
2022/08/05 14:27:13;;;;;;;;;;;28.20;53.60;;;;;;4877597;29;19927;-70